createdAt,value
2023-02-24T00:00:09.041Z,12.10
2023-02-24T00:02:42.130Z,11.90
2023-02-24T00:05:13.301Z,11.60
2023-02-24T00:07:44.454Z,11.70
2023-02-24T00:10:35.460Z,11.60
2023-02-24T00:13:06.764Z,11.60
2023-02-24T00:15:38.746Z,11.80
2023-02-24T00:18:11.113Z,11.80
2023-02-24T00:20:42.407Z,11.70
2023-02-24T00:23:13.810Z,11.80
2023-02-24T00:25:44.857Z,12.00
2023-02-24T00:28:16.137Z,11.80
2023-02-24T00:30:47.190Z,11.80
2023-02-24T00:33:29.023Z,12.00
2023-02-24T00:36:10.276Z,12.00
2023-02-24T00:38:46.484Z,12.10
2023-02-24T00:41:23.689Z,12.20
2023-02-24T00:43:54.970Z,12.20
2023-02-24T00:46:33.406Z,12.00
2023-02-24T00:49:07.229Z,12.10
2023-02-24T00:51:43.535Z,12.10
2023-02-24T00:54:17.740Z,11.90
2023-02-24T00:56:50.392Z,11.90
2023-02-24T00:59:25.073Z,11.90
2023-02-24T01:01:57.630Z,12.00
2023-02-24T01:04:31.027Z,12.00
2023-02-24T01:07:02.388Z,12.00
2023-02-24T01:09:56.160Z,12.00
2023-02-24T01:12:51.083Z,12.20
2023-02-24T01:15:24.701Z,12.00
2023-02-24T01:17:55.810Z,12.00
2023-02-24T01:20:26.920Z,11.90
2023-02-24T01:22:59.285Z,11.90
2023-02-24T01:25:32.746Z,12.00
2023-02-24T01:28:04.027Z,12.10
2023-02-24T01:30:35.626Z,12.10
2023-02-24T01:33:06.687Z,12.10
2023-02-24T01:35:37.943Z,12.20
2023-02-24T01:38:09.069Z,12.10
2023-02-24T01:40:40.315Z,12.10
2023-02-24T01:43:12.937Z,12.20
2023-02-24T01:45:43.904Z,12.20
2023-02-24T01:48:20.355Z,12.20
2023-02-24T01:50:52.253Z,12.30
2023-02-24T01:53:23.284Z,12.30
2023-02-24T01:55:54.726Z,12.10
2023-02-24T01:58:30.732Z,12.00
2023-02-24T02:01:02.198Z,12.10
2023-02-24T02:03:40.189Z,12.10
2023-02-24T02:06:19.174Z,12.20
2023-02-24T02:08:50.492Z,12.30
2023-02-24T02:11:24.390Z,12.30
2023-02-24T02:13:55.389Z,12.40
2023-02-24T02:16:43.541Z,12.50
2023-02-24T02:19:32.580Z,12.30
2023-02-24T02:22:16.477Z,12.40
2023-02-24T02:24:57.064Z,12.50
2023-02-24T02:28:06.125Z,12.40
2023-02-24T02:30:49.344Z,12.40
2023-02-24T02:33:45.684Z,12.30
2023-02-24T02:36:33.360Z,12.30
2023-02-24T02:39:16.077Z,12.40
2023-02-24T02:42:27.427Z,12.40
2023-02-24T02:45:50.800Z,12.40
2023-02-24T02:48:42.869Z,12.50
2023-02-24T02:51:20.494Z,12.50
2023-02-24T02:54:19.084Z,12.50
2023-02-24T02:56:55.193Z,12.40
2023-02-24T02:59:31.362Z,12.20
2023-02-24T03:02:16.450Z,12.20
2023-02-24T03:04:59.342Z,12.30
2023-02-24T03:07:37.743Z,12.10
2023-02-24T03:10:19.130Z,12.10
2023-02-24T03:12:57.377Z,12.20
2023-02-24T03:15:31.761Z,12.20
2023-02-24T03:18:14.017Z,12.10
2023-02-24T03:20:53.067Z,11.90
2023-02-24T03:23:33.577Z,11.90
2023-02-24T03:26:30.437Z,11.70
2023-02-24T03:29:28.356Z,11.90
2023-02-24T03:32:19.136Z,12.00
2023-02-24T03:35:06.214Z,11.90
2023-02-24T03:37:38.922Z,11.90
2023-02-24T03:40:16.086Z,11.70
2023-02-24T03:42:55.994Z,11.60
2023-02-24T03:45:29.601Z,11.60
2023-02-24T03:48:01.319Z,11.70
2023-02-24T03:50:36.472Z,11.80
2023-02-24T03:53:32.258Z,11.90
2023-02-24T03:56:12.582Z,11.90
2023-02-24T03:59:15.511Z,12.10
2023-02-24T04:01:59.546Z,11.80
2023-02-24T04:04:44.294Z,11.90
2023-02-24T04:07:59.349Z,12.00
2023-02-24T04:10:56.186Z,12.10
2023-02-24T04:13:49.804Z,12.20
2023-02-24T04:16:38.023Z,12.20
2023-02-24T04:19:19.816Z,12.30
2023-02-24T04:21:54.360Z,12.30
2023-02-24T04:24:32.874Z,12.20
2023-02-24T04:27:08.167Z,12.40
2023-02-24T04:29:51.864Z,12.40
2023-02-24T04:32:29.219Z,12.50
2023-02-24T04:35:09.023Z,12.60
2023-02-24T04:37:46.438Z,12.60
2023-02-24T04:40:20.347Z,12.70
2023-02-24T04:42:55.118Z,12.60
2023-02-24T04:45:29.812Z,12.80
2023-02-24T04:48:18.114Z,12.80
2023-02-24T04:51:12.389Z,12.70
2023-02-24T04:53:52.604Z,12.70
2023-02-24T04:56:24.029Z,12.70
2023-02-24T04:58:56.652Z,12.80
2023-02-24T05:01:28.989Z,12.70
2023-02-24T05:04:20.292Z,12.70
2023-02-24T05:06:51.358Z,12.80
2023-02-24T05:09:25.488Z,12.80
2023-02-24T05:12:18.027Z,12.80
2023-02-24T05:14:51.115Z,12.70
2023-02-24T05:17:23.694Z,12.80
2023-02-24T05:20:13.192Z,12.80
2023-02-24T05:22:44.500Z,12.80
2023-02-24T05:25:16.163Z,12.80
2023-02-24T05:27:47.828Z,12.90
2023-02-24T05:30:19.787Z,12.90
2023-02-24T05:32:50.876Z,12.90
2023-02-24T05:35:22.252Z,13.10
2023-02-24T05:37:53.831Z,13.10
2023-02-24T05:40:25.772Z,13.10
2023-02-24T05:43:20.696Z,13.10
2023-02-24T05:45:52.002Z,13.10
2023-02-24T05:48:23.510Z,13.10
2023-02-24T05:51:15.558Z,13.10
2023-02-24T05:53:47.063Z,13.00
2023-02-24T05:56:20.745Z,13.00
2023-02-24T05:59:03.467Z,13.00
2023-02-24T06:01:36.978Z,13.10
2023-02-24T06:04:10.464Z,13.20
2023-02-24T06:06:44.094Z,13.20
2023-02-24T06:09:17.192Z,13.20
2023-02-24T06:11:49.848Z,13.20
2023-02-24T06:14:24.450Z,13.20
2023-02-24T06:16:55.656Z,13.30
2023-02-24T06:19:26.870Z,13.20
2023-02-24T06:21:58.423Z,13.20
2023-02-24T06:24:31.675Z,13.20
2023-02-24T06:27:12.300Z,13.20
2023-02-24T06:29:48.392Z,13.20
2023-02-24T06:32:23.986Z,13.20
2023-02-24T06:34:56.858Z,13.20
2023-02-24T06:37:28.085Z,13.30
2023-02-24T06:40:00.172Z,13.30
2023-02-24T06:42:32.388Z,13.20
2023-02-24T06:45:03.461Z,13.30
2023-02-24T06:47:34.656Z,13.30
2023-02-24T06:50:11.033Z,13.40
2023-02-24T06:52:43.768Z,13.40
2023-02-24T06:55:30.169Z,13.40
2023-02-24T06:58:06.913Z,13.50
2023-02-24T07:00:41.267Z,13.50
2023-02-24T07:03:17.822Z,13.50
2023-02-24T07:05:53.127Z,13.60
2023-02-24T07:08:26.382Z,13.70
2023-02-24T07:11:02.596Z,13.60
2023-02-24T07:13:35.229Z,13.70
2023-02-24T07:16:08.708Z,13.80
2023-02-24T07:18:43.348Z,13.80
2023-02-24T07:21:14.415Z,13.70
2023-02-24T07:23:47.372Z,13.70
2023-02-24T07:26:21.024Z,13.70
2023-02-24T07:28:52.420Z,13.70
2023-02-24T07:31:26.165Z,13.70
2023-02-24T07:34:03.683Z,13.70
2023-02-24T07:36:49.487Z,13.70
2023-02-24T07:39:21.008Z,13.80
2023-02-24T07:41:54.569Z,13.80
2023-02-24T07:44:32.027Z,13.70
2023-02-24T07:47:24.422Z,13.80
2023-02-24T07:49:57.055Z,13.80
2023-02-24T07:52:28.093Z,13.80
2023-02-24T07:55:00.208Z,13.70
2023-02-24T07:57:39.079Z,13.80
2023-02-24T08:00:20.712Z,13.70
2023-02-24T08:02:53.163Z,13.70
2023-02-24T08:05:27.237Z,13.80
2023-02-24T08:07:58.492Z,13.70
2023-02-24T08:10:31.283Z,13.80
2023-02-24T08:13:04.843Z,13.70
2023-02-24T08:15:39.050Z,13.80
2023-02-24T08:18:30.131Z,13.80
2023-02-24T08:21:08.543Z,13.90
2023-02-24T08:23:46.128Z,13.80
2023-02-24T08:26:17.801Z,13.80
2023-02-24T08:28:49.774Z,13.80
2023-02-24T08:31:21.130Z,13.80
2023-02-24T08:33:52.710Z,13.80
2023-02-24T08:36:50.061Z,13.70
2023-02-24T08:39:24.164Z,13.70
2023-02-24T08:41:56.412Z,13.70
2023-02-24T08:44:30.297Z,13.70
2023-02-24T08:47:06.664Z,13.70
2023-02-24T08:49:46.701Z,13.80
2023-02-24T08:52:18.359Z,13.80
2023-02-24T08:54:50.645Z,13.90
2023-02-24T08:57:21.943Z,13.80
2023-02-24T08:59:59.325Z,13.80
2023-02-24T09:02:31.107Z,13.90
2023-02-24T09:05:05.952Z,13.80
2023-02-24T09:07:42.383Z,13.80
2023-02-24T09:10:19.756Z,13.80
2023-02-24T09:12:50.787Z,13.80
2023-02-24T09:15:24.368Z,13.70
2023-02-24T09:18:08.890Z,13.80
2023-02-24T09:20:58.354Z,13.90
2023-02-24T09:26:19.520Z,13.90
2023-02-24T09:28:52.948Z,13.90
2023-02-24T09:31:42.132Z,13.90
2023-02-24T09:34:20.085Z,14.00
2023-02-24T09:37:04.367Z,14.10
2023-02-24T09:39:55.942Z,14.00
2023-02-24T09:42:36.185Z,14.00
2023-02-24T09:45:15.306Z,14.10
2023-02-24T09:48:20.778Z,14.10
2023-02-24T09:51:23.146Z,14.10
2023-02-24T09:53:58.561Z,14.10
2023-02-24T09:56:33.211Z,14.10
2023-02-24T09:59:27.548Z,14.10
2023-02-24T10:02:06.597Z,14.10
2023-02-24T10:04:55.969Z,14.00
2023-02-24T10:07:42.029Z,14.00
2023-02-24T10:10:37.779Z,14.00
2023-02-24T10:13:34.665Z,14.00
2023-02-24T10:16:12.643Z,13.90
2023-02-24T10:19:16.753Z,13.90
2023-02-24T10:22:08.947Z,13.90
2023-02-24T10:24:49.171Z,13.90
2023-02-24T10:27:26.708Z,13.90
2023-02-24T10:30:07.233Z,13.80
2023-02-24T10:32:48.536Z,13.80
2023-02-24T10:35:23.759Z,13.80
2023-02-24T10:38:06.696Z,13.70
2023-02-24T10:41:00.252Z,13.70
2023-02-24T10:43:36.672Z,13.60
2023-02-24T10:46:08.118Z,13.50
2023-02-24T10:48:42.708Z,13.40
2023-02-24T10:51:35.270Z,13.40
2023-02-24T10:54:26.122Z,13.30
2023-02-24T10:57:02.278Z,13.20
2023-02-24T11:00:20.417Z,13.10
2023-02-24T11:03:27.960Z,13.00
2023-02-24T11:06:07.057Z,13.00
2023-02-24T11:09:02.988Z,12.80
2023-02-24T11:12:01.984Z,12.70
2023-02-24T11:15:03.495Z,12.70
2023-02-24T11:17:35.125Z,12.50
2023-02-24T11:20:23.515Z,12.60
2023-02-24T11:22:58.745Z,12.50
2023-02-24T11:25:39.056Z,12.50
2023-02-24T11:28:23.261Z,12.50
2023-02-24T11:31:09.666Z,12.40
2023-02-24T11:34:14.074Z,12.40
2023-02-24T11:36:53.616Z,12.30
2023-02-24T11:39:56.370Z,12.30
2023-02-24T11:45:58.604Z,12.20
2023-02-24T11:48:54.714Z,12.20
2023-02-24T11:51:34.713Z,12.10
2023-02-24T11:54:21.241Z,12.00
2023-02-24T11:57:03.562Z,11.90
2023-02-24T11:59:51.363Z,11.90
2023-02-24T12:03:03.889Z,11.90
2023-02-24T12:05:45.813Z,11.80
2023-02-24T12:08:36.874Z,11.80
2023-02-24T12:11:38.316Z,11.80
2023-02-24T12:14:40.791Z,11.80
2023-02-24T12:17:26.365Z,11.80
2023-02-24T12:20:21.566Z,11.80
2023-02-24T12:22:57.115Z,11.80
2023-02-24T12:25:43.579Z,11.90
2023-02-24T12:28:41.644Z,11.80
2023-02-24T12:31:43.151Z,11.50
2023-02-24T12:34:38.914Z,11.30
2023-02-24T12:37:44.476Z,11.50
2023-02-24T12:40:41.831Z,11.50
2023-02-24T12:43:37.085Z,11.40
2023-02-24T12:46:31.817Z,11.40
2023-02-24T12:49:06.848Z,11.40
2023-02-24T12:51:58.171Z,11.40
2023-02-24T12:54:59.996Z,11.30
2023-02-24T12:57:47.829Z,11.30
2023-02-24T13:00:53.035Z,11.30
2023-02-24T13:03:27.728Z,11.30
2023-02-24T13:06:39.341Z,11.10
2023-02-24T13:15:27.143Z,11.00
2023-02-24T13:18:01.705Z,11.00
2023-02-24T13:20:38.124Z,11.10
2023-02-24T13:23:25.346Z,11.10
2023-02-24T13:25:59.590Z,10.90
2023-02-24T13:28:38.018Z,10.70
2023-02-24T13:31:15.748Z,10.50
2023-02-24T13:33:52.557Z,10.40
2023-02-24T13:36:26.926Z,10.60
2023-02-24T13:39:24.211Z,10.70
2023-02-24T13:42:33.589Z,10.60
2023-02-24T13:45:16.235Z,10.40
2023-02-24T13:48:01.624Z,10.40
2023-02-24T13:51:11.959Z,10.40
2023-02-24T13:53:57.524Z,10.20
2023-02-24T13:56:35.947Z,10.20
2023-02-24T13:59:44.264Z,10.40
2023-02-24T14:02:20.636Z,10.50
2023-02-24T14:05:03.831Z,10.40
2023-02-24T14:07:38.194Z,10.30
2023-02-24T14:10:25.059Z,10.40
2023-02-24T14:15:58.412Z,10.40
2023-02-24T14:18:33.660Z,10.40
2023-02-24T14:21:07.249Z,10.40
2023-02-24T14:23:40.004Z,10.40
2023-02-24T14:26:21.697Z,10.50
2023-02-24T14:29:07.616Z,10.40
2023-02-24T14:31:39.984Z,10.50
2023-02-24T14:34:20.079Z,10.40
2023-02-24T14:37:03.459Z,10.30
2023-02-24T14:39:41.809Z,10.10
2023-02-24T14:42:29.068Z,10.00
2023-02-24T14:45:02.478Z,10.00
2023-02-24T14:47:35.045Z,10.20
2023-02-24T14:50:08.700Z,10.20
2023-02-24T14:52:52.563Z,10.20
2023-02-24T14:55:28.506Z,10.10
2023-02-24T14:58:42.640Z,10.00
2023-02-24T15:01:30.064Z,10.20
2023-02-24T15:04:11.852Z,10.20
2023-02-24T15:09:39.947Z,9.90
2023-02-24T15:12:20.584Z,9.80
2023-02-24T15:15:00.193Z,9.70
2023-02-24T15:17:33.835Z,9.80
2023-02-24T15:20:08.328Z,9.90
2023-02-24T15:22:53.299Z,10.00
2023-02-24T15:25:42.714Z,9.80
2023-02-24T15:28:39.374Z,9.70
2023-02-24T15:31:23.794Z,9.60
2023-02-24T15:34:06.459Z,9.50
2023-02-24T15:36:38.957Z,9.60
2023-02-24T15:39:35.958Z,9.70
2023-02-24T15:42:19.523Z,9.80
2023-02-24T15:45:00.710Z,9.80
2023-02-24T15:47:43.628Z,9.70
2023-02-24T15:50:16.992Z,9.60
2023-02-24T15:52:48.668Z,9.50
2023-02-24T15:55:24.008Z,9.50
2023-02-24T15:58:07.237Z,9.40
2023-02-24T16:01:01.196Z,9.50
2023-02-24T16:03:38.136Z,9.70
2023-02-24T16:06:22.383Z,9.70
2023-02-24T16:09:18.536Z,9.80
2023-02-24T16:11:54.172Z,9.80
2023-02-24T16:14:27.818Z,9.60
2023-02-24T16:17:01.407Z,9.50
2023-02-24T16:19:33.822Z,9.40
2023-02-24T16:22:06.059Z,9.40
2023-02-24T16:24:41.162Z,9.40
2023-02-24T16:27:22.310Z,9.30
2023-02-24T16:29:54.833Z,9.30
2023-02-24T16:32:31.329Z,9.40
2023-02-24T16:35:06.251Z,9.30
2023-02-24T16:37:37.459Z,9.10
2023-02-24T16:43:17.131Z,9.20
2023-02-24T16:45:53.256Z,9.20
2023-02-24T16:48:32.301Z,9.20
2023-02-24T16:51:04.811Z,9.40
2023-02-24T16:53:36.496Z,9.50
2023-02-24T16:56:08.952Z,9.30
2023-02-24T16:58:42.949Z,9.10
2023-02-24T17:01:21.780Z,9.10
2023-02-24T17:04:18.968Z,9.00
2023-02-24T17:06:51.220Z,9.00
2023-02-24T17:09:22.553Z,9.20
2023-02-24T17:11:53.785Z,9.10
2023-02-24T17:14:24.763Z,8.90
2023-02-24T17:17:06.348Z,9.20
2023-02-24T17:19:39.483Z,9.20
2023-02-24T17:22:12.045Z,9.10
2023-02-24T17:24:44.166Z,9.00
2023-02-24T17:29:58.982Z,9.20
2023-02-24T17:32:30.426Z,9.20
2023-02-24T17:35:01.501Z,9.10
2023-02-24T17:37:33.939Z,9.00
2023-02-24T17:40:06.548Z,8.90
2023-02-24T17:42:38.019Z,8.90
2023-02-24T17:45:11.626Z,9.10
2023-02-24T17:47:43.267Z,9.10
2023-02-24T17:50:16.504Z,9.20
2023-02-24T17:52:49.704Z,9.10
2023-02-24T17:55:20.838Z,9.10
2023-02-24T17:57:51.889Z,9.10
2023-02-24T18:00:23.084Z,9.10
2023-02-24T18:02:55.998Z,9.10
2023-02-24T18:05:30.141Z,8.90
2023-02-24T18:08:01.917Z,8.90
2023-02-24T18:10:36.787Z,8.90
2023-02-24T18:13:08.105Z,8.90
2023-02-24T18:15:41.302Z,9.00
2023-02-24T18:18:12.646Z,9.00
2023-02-24T18:20:47.699Z,8.90
2023-02-24T18:23:18.890Z,8.80
2023-02-24T18:25:49.956Z,8.80
2023-02-24T18:28:21.183Z,8.50
2023-02-24T18:30:52.230Z,8.60
2023-02-24T18:33:23.642Z,8.80
2023-02-24T18:36:02.178Z,8.90
2023-02-24T18:38:33.329Z,8.70
2023-02-24T18:41:08.278Z,8.70
2023-02-24T18:43:39.683Z,8.70
2023-02-24T18:46:15.819Z,8.70
2023-02-24T18:48:47.764Z,8.80
2023-02-24T18:51:22.017Z,8.60
2023-02-24T18:53:53.258Z,8.70
2023-02-24T18:56:27.978Z,8.80
2023-02-24T18:59:00.649Z,8.80
2023-02-24T19:01:40.818Z,8.60
2023-02-24T19:04:14.788Z,8.70
2023-02-24T19:06:50.588Z,8.80
2023-02-24T19:09:25.399Z,8.70
2023-02-24T19:11:56.282Z,8.80
2023-02-24T19:14:27.642Z,8.70
2023-02-24T19:17:09.461Z,8.60
2023-02-24T19:19:41.597Z,8.60
2023-02-24T19:22:12.752Z,8.70
2023-02-24T19:24:44.748Z,8.50
2023-02-24T19:27:15.900Z,8.50
2023-02-24T19:29:46.714Z,8.60
2023-02-24T19:32:17.851Z,8.70
2023-02-24T19:34:49.549Z,8.70
2023-02-24T19:37:20.371Z,8.70
2023-02-24T19:39:52.559Z,8.70
2023-02-24T19:42:23.386Z,8.70
2023-02-24T19:44:55.710Z,8.60
2023-02-24T19:47:26.482Z,8.60
2023-02-24T19:49:57.288Z,8.50
2023-02-24T19:52:28.386Z,8.60
2023-02-24T19:54:59.610Z,8.60
2023-02-24T19:57:30.751Z,8.70
2023-02-24T20:00:01.667Z,8.60
2023-02-24T20:02:42.694Z,8.60
2023-02-24T20:05:13.695Z,8.60
2023-02-24T20:07:47.880Z,8.60
2023-02-24T20:10:21.013Z,8.60
2023-02-24T20:12:52.053Z,8.60
2023-02-24T20:15:22.742Z,8.60
2023-02-24T20:17:53.798Z,8.50
2023-02-24T20:20:24.918Z,8.50
2023-02-24T20:22:55.867Z,8.50
2023-02-24T20:25:27.046Z,8.50
2023-02-24T20:27:57.882Z,8.40
2023-02-24T20:30:28.862Z,8.30
2023-02-24T20:33:01.131Z,8.30
2023-02-24T20:35:32.134Z,8.40
2023-02-24T20:38:03.048Z,8.40
2023-02-24T20:41:03.084Z,8.30
2023-02-24T20:43:33.918Z,8.30
2023-02-24T20:46:28.147Z,8.40
2023-02-24T20:49:04.348Z,8.30
2023-02-24T20:51:38.585Z,8.30
2023-02-24T20:54:11.114Z,8.40
2023-02-24T20:56:44.944Z,8.40
2023-02-24T20:59:18.994Z,8.50
2023-02-24T21:01:50.945Z,8.50
2023-02-24T21:04:24.954Z,8.50
2023-02-24T21:06:56.311Z,8.50
2023-02-24T21:09:27.524Z,8.50
2023-02-24T21:11:58.208Z,8.50
2023-02-24T21:14:29.120Z,8.50
2023-02-24T21:17:00.411Z,8.50
2023-02-24T21:19:32.177Z,8.50
2023-02-24T21:22:03.090Z,8.40
2023-02-24T21:24:34.526Z,8.40
2023-02-24T21:27:05.274Z,8.40
2023-02-24T21:29:36.182Z,8.40
2023-02-24T21:32:07.461Z,8.40
2023-02-24T21:34:38.565Z,8.30
2023-02-24T21:37:09.716Z,8.20
2023-02-24T21:39:40.853Z,8.20
2023-02-24T21:42:13.853Z,8.30
2023-02-24T21:44:44.873Z,8.20
2023-02-24T21:47:15.963Z,8.20
2023-02-24T21:49:47.652Z,8.20
2023-02-24T21:52:18.470Z,8.20
2023-02-24T21:54:51.288Z,8.20
2023-02-24T21:57:22.409Z,8.30
2023-02-24T21:59:53.374Z,8.20
2023-02-24T22:02:24.329Z,8.10
2023-02-24T22:04:56.307Z,8.10
2023-02-24T22:07:28.782Z,8.00
2023-02-24T22:09:59.468Z,8.10
2023-02-24T22:12:30.146Z,8.10
2023-02-24T22:15:01.066Z,8.10
2023-02-24T22:17:33.379Z,8.20
2023-02-24T22:20:05.588Z,8.20
2023-02-24T22:22:41.043Z,8.10
2023-02-24T22:25:12.846Z,8.20
2023-02-24T22:27:43.816Z,8.20
2023-02-24T22:30:15.574Z,8.20
2023-02-24T22:32:46.675Z,8.20
2023-02-24T22:35:17.823Z,8.20
2023-02-24T22:37:48.866Z,8.00
2023-02-24T22:40:20.826Z,8.00
2023-02-24T22:42:51.971Z,7.90
2023-02-24T22:45:22.720Z,7.80
2023-02-24T22:47:53.716Z,7.90
2023-02-24T22:50:25.173Z,7.80
2023-02-24T22:53:16.135Z,7.70
2023-02-24T22:55:50.993Z,7.70
2023-02-24T22:58:23.515Z,7.80
2023-02-24T23:00:56.232Z,7.80
2023-02-24T23:03:30.001Z,7.80
2023-02-24T23:06:10.835Z,7.90
2023-02-24T23:08:44.820Z,7.90
2023-02-24T23:11:16.743Z,8.00
2023-02-24T23:13:49.903Z,8.00
2023-02-24T23:16:28.954Z,8.00
2023-02-24T23:19:05.556Z,8.00
2023-02-24T23:21:40.002Z,7.90
2023-02-24T23:24:13.383Z,8.00
2023-02-24T23:26:48.148Z,7.90
2023-02-24T23:29:20.146Z,7.90
2023-02-24T23:31:51.115Z,7.90
2023-02-24T23:34:22.655Z,7.90
2023-02-24T23:36:54.928Z,8.10
2023-02-24T23:39:25.909Z,8.00
2023-02-24T23:42:03.465Z,8.00
2023-02-24T23:44:39.285Z,8.00
2023-02-24T23:47:10.740Z,8.00
2023-02-24T23:49:48.504Z,8.10
2023-02-24T23:52:20.243Z,8.10
2023-02-24T23:54:52.336Z,8.10
2023-02-24T23:57:24.289Z,8.20
2023-02-24T23:59:55.386Z,8.20
